Albacete, Spain
Current Conditions -  °F | °C
As of 4:00 PM on Friday 24 Oct 2014 (Local Time) from LEAB Reporting Station
Clear Clear  
Wind Chill: 75°   Ceiling: Unl
Heat Index: 75°   Visibility: 6mi
Dew Point: 34°   Wind: 5mph
Humidity: 22%   Direction: NA
Pressure: 30.09"   Gusts: NA
Location:  38.98°N, 1.85°W
Report Text: LEAB 241400Z VRB04KT CAVOK 24/01 Q1019 NOSIG
Loading
Personal Weather Stations






























Interactive Weather Map
Tropical Storm Tracking
New forecast layout! Learn more

10-Day Weather Forecast

Advertisements
Track Severe Weather on mobile